createdAt,value
2022-07-29T00:01:01.977Z,101445.56
2022-07-29T00:03:28.492Z,101442.88
2022-07-29T00:05:54.985Z,101430.91
2022-07-29T00:08:21.706Z,101433.13
2022-07-29T00:10:48.560Z,101440.34
2022-07-29T00:13:15.190Z,101424.97
2022-07-29T00:15:41.787Z,101415.69
2022-07-29T00:18:08.631Z,101429.81
2022-07-29T00:20:35.083Z,101438.78
2022-07-29T00:23:01.740Z,101430.72
2022-07-29T00:25:28.281Z,101434.28
2022-07-29T00:27:54.765Z,101425.34
2022-07-29T00:30:21.342Z,101429.19
2022-07-29T00:32:47.779Z,101423.66
2022-07-29T00:35:32.984Z,101420.97
2022-07-29T00:38:00.098Z,101420.97
2022-07-29T00:40:28.726Z,101424.66
2022-07-29T00:42:55.297Z,101427.34
2022-07-29T00:45:23.149Z,101428.34
2022-07-29T00:47:49.813Z,101403.34
2022-07-29T00:50:16.436Z,101433.75
2022-07-29T00:52:44.032Z,101430.22
2022-07-29T00:55:15.288Z,101426.69
2022-07-29T00:57:43.213Z,101432.06
2022-07-29T01:00:15.474Z,101431.19
2022-07-29T01:02:41.963Z,101427.66
2022-07-29T01:05:08.876Z,101426.84
2022-07-29T01:07:37.061Z,101432.22
2022-07-29T01:10:08.782Z,101434.91
2022-07-29T01:12:36.659Z,101432.22
2022-07-29T01:15:05.749Z,101406.56
2022-07-29T01:17:52.591Z,101428.00
2022-07-29T01:20:51.715Z,101426.16
2022-07-29T01:23:39.439Z,101426.16
2022-07-29T01:26:33.769Z,101430.69
2022-07-29T01:29:12.178Z,101423.94
2022-07-29T01:32:00.565Z,101427.31
2022-07-29T01:34:44.867Z,101432.69
2022-07-29T01:37:50.983Z,101398.03
2022-07-29T01:40:25.138Z,101429.31
2022-07-29T01:42:53.387Z,101429.47
2022-07-29T01:45:29.451Z,101416.94
2022-07-29T01:48:10.006Z,101314.34
2022-07-29T01:50:41.392Z,101421.47
2022-07-29T01:53:11.461Z,101437.69
2022-07-29T01:55:43.083Z,101419.88
2022-07-29T01:58:11.776Z,101440.56
2022-07-29T02:00:40.083Z,101379.03
2022-07-29T02:03:12.644Z,101439.69
2022-07-29T02:05:41.339Z,101429.16
2022-07-29T02:08:09.180Z,101425.78
2022-07-29T02:10:37.412Z,101442.72
2022-07-29T02:13:05.173Z,101417.34
2022-07-29T02:15:33.960Z,101442.03
2022-07-29T02:18:13.936Z,101451.81
2022-07-29T02:20:43.980Z,101451.94
2022-07-29T02:23:13.732Z,101443.00
2022-07-29T02:25:43.017Z,101426.25
2022-07-29T02:28:09.848Z,101436.25
2022-07-29T02:30:41.668Z,101446.00
2022-07-29T02:33:11.034Z,101443.31
2022-07-29T02:35:38.919Z,101447.84
2022-07-29T02:38:24.539Z,101448.88
2022-07-29T02:40:52.792Z,101458.78
2022-07-29T02:43:22.008Z,101454.41
2022-07-29T02:45:53.775Z,101460.63
2022-07-29T02:48:26.886Z,101448.19
2022-07-29T02:51:02.650Z,101433.97
2022-07-29T02:53:34.158Z,101443.94
2022-07-29T02:56:05.326Z,101430.75
2022-07-29T02:58:34.427Z,101436.13
2022-07-29T03:01:05.099Z,101451.31
2022-07-29T03:03:38.629Z,101454.88
2022-07-29T03:06:06.791Z,101461.09
2022-07-29T03:08:33.942Z,101455.88
2022-07-29T03:11:01.942Z,101456.88
2022-07-29T03:13:29.095Z,101464.25
2022-07-29T03:15:56.352Z,101462.41
2022-07-29T03:18:23.104Z,101465.09
2022-07-29T03:20:49.674Z,101444.28
2022-07-29T03:23:21.017Z,101461.72
2022-07-29T03:25:47.795Z,101464.41
2022-07-29T03:28:14.333Z,101460.03
2022-07-29T03:30:44.532Z,101462.72
2022-07-29T03:33:13.785Z,101454.25
2022-07-29T03:35:40.822Z,101453.97
2022-07-29T03:38:07.900Z,101433.69
2022-07-29T03:40:43.585Z,101460.19
2022-07-29T03:43:11.902Z,101464.72
2022-07-29T03:45:39.956Z,101455.97
2022-07-29T03:48:13.655Z,101455.13
2022-07-29T03:50:40.675Z,101446.66
2022-07-29T03:53:07.253Z,101442.75
2022-07-29T03:55:41.026Z,101454.25
2022-07-29T03:58:09.027Z,101454.44
2022-07-29T04:00:37.384Z,101452.75
2022-07-29T04:03:05.187Z,101434.28
2022-07-29T04:05:37.464Z,101454.59
2022-07-29T04:08:04.020Z,101452.88
2022-07-29T04:10:32.195Z,101455.56
2022-07-29T04:13:00.833Z,101453.91
2022-07-29T04:15:31.403Z,101454.03
2022-07-29T04:17:58.590Z,101450.50
2022-07-29T04:20:25.190Z,101457.06
2022-07-29T04:22:51.636Z,101456.91
2022-07-29T04:25:18.269Z,101459.59
2022-07-29T04:28:01.121Z,101449.81
2022-07-29T04:30:27.940Z,101421.25
2022-07-29T04:32:54.381Z,101449.81
2022-07-29T04:35:21.189Z,101432.41
2022-07-29T04:37:47.724Z,101455.34
2022-07-29T04:40:14.262Z,101450.97
2022-07-29T04:42:46.294Z,101452.84
2022-07-29T04:45:13.483Z,101452.84
2022-07-29T04:47:40.952Z,101444.06
2022-07-29T04:50:08.836Z,101449.28
2022-07-29T04:52:36.221Z,101450.28
2022-07-29T04:55:04.129Z,101446.75
2022-07-29T04:57:30.680Z,101435.94
2022-07-29T04:59:57.209Z,101416.31
2022-07-29T05:02:23.753Z,101449.59
2022-07-29T05:04:50.282Z,101448.75
2022-07-29T05:07:16.868Z,101448.75
2022-07-29T05:09:43.322Z,101449.75
2022-07-29T05:12:10.638Z,101447.94
2022-07-29T05:14:37.115Z,101452.44
2022-07-29T05:17:03.757Z,101440.84
2022-07-29T05:19:30.272Z,101451.59
2022-07-29T05:21:56.753Z,101434.69
2022-07-29T05:24:23.217Z,101440.84
2022-07-29T05:26:49.731Z,101443.69
2022-07-29T05:29:42.466Z,101440.97
2022-07-29T05:32:03.313Z,101386.19
2022-07-29T05:34:29.871Z,101442.00
2022-07-29T05:36:56.394Z,101415.13
2022-07-29T05:39:48.960Z,101440.47
2022-07-29T05:42:11.151Z,101448.22
2022-07-29T05:44:39.031Z,101445.84
2022-07-29T05:47:06.075Z,101451.91
2022-07-29T05:49:32.596Z,101452.75
2022-07-29T05:51:59.231Z,101446.69
2022-07-29T05:54:26.654Z,101357.47
2022-07-29T05:56:53.172Z,101443.69
2022-07-29T05:59:19.638Z,101367.59
2022-07-29T06:01:46.159Z,101434.25
2022-07-29T06:04:12.854Z,101436.63
2022-07-29T06:06:39.430Z,101448.22
2022-07-29T06:09:12.089Z,101441.16
2022-07-29T06:11:39.124Z,101442.00
2022-07-29T06:14:05.608Z,101447.38
2022-07-29T06:16:32.160Z,101441.16
2022-07-29T06:18:58.671Z,101444.69
2022-07-29T06:21:25.185Z,101451.06
2022-07-29T06:23:51.743Z,101451.06
2022-07-29T06:26:18.170Z,101455.59
2022-07-29T06:28:44.694Z,101444.84
2022-07-29T06:31:11.282Z,101432.31
2022-07-29T06:33:37.838Z,101416.09
2022-07-29T06:36:06.485Z,101453.59
2022-07-29T06:38:34.496Z,101429.78
2022-07-29T06:41:13.145Z,101425.41
2022-07-29T06:43:52.402Z,101446.22
2022-07-29T06:46:23.743Z,101422.56
2022-07-29T06:48:51.433Z,101457.81
2022-07-29T06:51:22.283Z,101455.13
2022-07-29T06:53:59.075Z,101458.50
2022-07-29T06:56:29.404Z,101452.28
2022-07-29T06:58:55.925Z,101458.50
2022-07-29T07:01:22.847Z,101457.53
2022-07-29T07:03:49.574Z,101454.84
2022-07-29T07:06:16.125Z,101458.50
2022-07-29T07:08:42.637Z,101452.16
2022-07-29T07:11:09.633Z,101451.13
2022-07-29T07:13:36.855Z,101452.97
2022-07-29T07:16:04.709Z,101458.38
2022-07-29T07:18:31.526Z,101459.19
2022-07-29T07:20:58.232Z,101441.41
2022-07-29T07:23:24.956Z,101460.03
2022-07-29T07:25:52.100Z,101463.59
2022-07-29T07:28:19.296Z,101455.69
2022-07-29T07:30:52.009Z,101464.44
2022-07-29T07:33:18.520Z,101466.13
2022-07-29T07:35:45.315Z,101463.59
2022-07-29T07:38:11.921Z,101463.28
2022-07-29T07:40:38.549Z,101467.81
2022-07-29T07:43:05.313Z,101460.72
2022-07-29T07:45:33.917Z,101460.44
2022-07-29T07:48:01.002Z,101461.28
2022-07-29T07:50:27.753Z,101465.69
2022-07-29T07:52:58.727Z,101454.91
2022-07-29T07:55:26.497Z,101459.28
2022-07-29T07:57:53.350Z,101384.34
2022-07-29T08:00:19.913Z,101452.84
2022-07-29T08:02:50.891Z,101467.34
2022-07-29T08:05:20.211Z,101463.66
2022-07-29T08:07:47.716Z,101461.81
2022-07-29T08:10:36.812Z,101427.72
2022-07-29T08:13:05.714Z,101445.06
2022-07-29T08:15:32.955Z,101463.50
2022-07-29T08:17:59.639Z,101466.19
2022-07-29T08:20:26.253Z,101462.81
2022-07-29T08:22:54.485Z,101457.13
2022-07-29T08:25:21.557Z,101458.81
2022-07-29T08:27:48.609Z,101466.72
2022-07-29T08:30:16.330Z,101456.81
2022-07-29T08:32:53.819Z,101464.88
2022-07-29T08:35:22.423Z,101469.25
2022-07-29T08:37:48.984Z,101469.25
2022-07-29T08:40:15.638Z,101458.47
2022-07-29T08:42:42.164Z,101465.56
2022-07-29T08:45:09.347Z,101462.72
2022-07-29T08:47:40.385Z,101445.13
2022-07-29T08:50:09.034Z,101459.03
2022-07-29T08:52:40.696Z,101459.88
2022-07-29T08:55:08.748Z,101459.72
2022-07-29T08:57:37.126Z,101447.56
2022-07-29T09:00:11.507Z,101455.03
2022-07-29T09:02:46.804Z,101443.91
2022-07-29T09:05:14.824Z,101446.41
2022-07-29T09:07:44.150Z,101450.19
2022-07-29T09:10:11.151Z,101452.69
2022-07-29T09:12:38.290Z,101450.00
2022-07-29T09:15:05.268Z,101455.25
2022-07-29T09:17:49.591Z,101444.31
2022-07-29T09:20:18.398Z,101445.16
2022-07-29T09:22:50.066Z,101440.25
2022-07-29T09:25:42.345Z,101448.69
2022-07-29T09:28:13.633Z,101453.78
2022-07-29T09:30:52.133Z,101457.19
2022-07-29T09:33:18.662Z,101438.56
2022-07-29T09:35:57.156Z,101422.78
2022-07-29T09:38:23.704Z,101446.78
2022-07-29T09:41:05.862Z,101447.47
2022-07-29T09:43:33.546Z,101430.41
2022-07-29T09:46:13.504Z,101435.34
2022-07-29T09:48:40.556Z,101432.63
2022-07-29T09:51:20.664Z,101437.53
2022-07-29T09:53:49.047Z,101418.09
2022-07-29T09:56:15.520Z,101453.91
2022-07-29T09:58:41.970Z,101439.47
2022-07-29T10:01:08.532Z,101446.38
2022-07-29T10:03:51.553Z,101439.13
2022-07-29T10:06:18.074Z,101439.97
2022-07-29T10:08:44.564Z,101434.06
2022-07-29T10:11:16.730Z,101435.28
2022-07-29T10:13:47.577Z,101437.97
2022-07-29T10:16:15.904Z,101432.44
2022-07-29T10:18:44.770Z,101436.78
2022-07-29T10:21:22.519Z,101432.28
2022-07-29T10:24:01.273Z,101433.13
2022-07-29T10:26:29.147Z,101424.00
2022-07-29T10:28:56.689Z,101419.31
2022-07-29T10:31:36.336Z,101410.53
2022-07-29T10:34:28.768Z,101421.50
2022-07-29T10:37:13.672Z,101422.69
2022-07-29T10:39:53.438Z,101426.22
2022-07-29T10:42:33.635Z,101418.47
2022-07-29T10:45:01.751Z,101434.00
2022-07-29T10:47:28.764Z,101426.75
2022-07-29T10:49:59.165Z,101423.91
2022-07-29T10:52:57.966Z,101422.88
2022-07-29T10:55:39.381Z,101423.56
2022-07-29T10:58:27.388Z,101423.56
2022-07-29T11:00:56.355Z,101423.44
2022-07-29T11:03:49.390Z,101415.19
2022-07-29T11:06:16.807Z,101417.88
2022-07-29T11:08:44.603Z,101419.56
2022-07-29T11:14:14.869Z,101406.63
2022-07-29T11:17:17.381Z,101418.09
2022-07-29T11:19:49.307Z,101407.31
2022-07-29T11:22:36.724Z,101408.81
2022-07-29T11:25:43.003Z,101401.59
2022-07-29T11:28:22.409Z,101401.44
2022-07-29T11:30:53.393Z,101404.81
2022-07-29T11:33:37.513Z,101404.81
2022-07-29T11:36:19.454Z,101273.50
2022-07-29T11:39:36.409Z,101396.53
2022-07-29T11:42:32.238Z,101398.09
2022-07-29T11:45:44.187Z,101396.22
2022-07-29T11:48:27.991Z,101398.09
2022-07-29T11:50:48.495Z,101376.81
2022-07-29T11:53:16.286Z,101397.78
2022-07-29T11:55:51.527Z,101399.47
2022-07-29T11:58:25.140Z,101379.00
2022-07-29T12:00:53.175Z,101398.31
2022-07-29T12:03:35.479Z,101395.44
2022-07-29T12:06:18.329Z,101373.47
2022-07-29T12:08:45.707Z,101391.75
2022-07-29T12:11:21.851Z,101390.91
2022-07-29T12:13:49.941Z,101393.78
2022-07-29T12:16:16.601Z,101394.63
2022-07-29T12:19:02.115Z,101395.31
2022-07-29T12:21:29.754Z,101387.91
2022-07-29T12:24:01.896Z,101400.34
2022-07-29T12:26:32.479Z,101391.28
2022-07-29T12:29:02.380Z,101390.09
2022-07-29T12:31:42.071Z,101363.78
2022-07-29T12:34:09.259Z,101384.38
2022-07-29T12:36:36.415Z,101389.59
2022-07-29T12:39:03.585Z,101395.69
2022-07-29T12:41:30.776Z,101399.88
2022-07-29T12:43:57.343Z,101384.91
2022-07-29T12:46:23.920Z,101391.31
2022-07-29T12:48:55.969Z,101370.91
2022-07-29T12:51:29.932Z,101389.28
2022-07-29T12:54:14.475Z,101393.69
2022-07-29T12:56:43.636Z,101383.53
2022-07-29T12:59:16.336Z,101396.72
2022-07-29T13:01:43.017Z,101381.88
2022-07-29T13:04:09.565Z,101391.81
2022-07-29T13:06:41.856Z,101386.94
2022-07-29T13:09:11.832Z,101381.72
2022-07-29T13:11:48.217Z,101384.78
2022-07-29T13:14:45.238Z,101384.59
2022-07-29T13:17:17.005Z,101382.56
2022-07-29T13:19:44.811Z,101379.72
2022-07-29T13:22:16.264Z,101379.56
2022-07-29T13:24:51.293Z,101375.69
2022-07-29T13:27:19.929Z,101380.94
2022-07-29T13:29:47.347Z,101383.44
2022-07-29T13:32:14.139Z,101370.97
2022-07-29T13:34:41.616Z,101381.94
2022-07-29T13:37:08.079Z,101374.53
2022-07-29T13:39:34.668Z,101380.59
2022-07-29T13:42:01.616Z,101373.84
2022-07-29T13:44:28.214Z,101375.53
2022-07-29T13:46:54.679Z,101367.94
2022-07-29T13:49:21.223Z,101370.47
2022-07-29T13:51:47.784Z,101342.97
2022-07-29T13:54:14.252Z,101371.81
2022-07-29T13:56:40.691Z,101369.78
2022-07-29T13:59:07.152Z,101370.44
2022-07-29T14:01:33.669Z,101375.53
2022-07-29T14:04:00.323Z,101362.72
2022-07-29T14:06:27.445Z,101368.78
2022-07-29T14:08:56.552Z,101231.22
2022-07-29T14:11:23.046Z,101360.34
2022-07-29T14:13:49.522Z,101359.13
2022-07-29T14:16:16.032Z,101353.75
2022-07-29T14:18:42.699Z,101325.25
2022-07-29T14:21:09.700Z,101356.75
2022-07-29T14:23:37.385Z,101341.59
2022-07-29T14:26:08.883Z,101359.13
2022-07-29T14:28:41.949Z,101357.09
2022-07-29T14:31:08.606Z,101359.63
2022-07-29T14:33:35.068Z,101353.22
2022-07-29T14:36:01.790Z,101354.91
2022-07-29T14:38:28.377Z,101336.88
2022-07-29T14:40:54.857Z,101342.41
2022-07-29T14:43:21.319Z,101346.50
2022-07-29T14:45:48.371Z,101348.16
2022-07-29T14:48:14.960Z,101340.06
2022-07-29T14:50:41.431Z,101345.13
2022-07-29T14:53:07.939Z,101339.53
2022-07-29T14:55:34.447Z,101349.34
2022-07-29T14:58:09.671Z,101356.41
2022-07-29T15:00:37.823Z,101340.72
2022-07-29T15:03:05.070Z,101349.34
2022-07-29T15:05:32.232Z,101353.03
2022-07-29T15:08:00.276Z,101335.69
2022-07-29T15:10:29.936Z,101348.13
2022-07-29T15:12:57.138Z,101340.69
2022-07-29T15:15:23.744Z,101338.47
2022-07-29T15:17:50.195Z,101348.94
2022-07-29T15:20:16.663Z,101336.94
2022-07-29T15:22:43.948Z,101324.28
2022-07-29T15:25:10.823Z,101339.78
2022-07-29T15:27:37.322Z,101345.19
2022-07-29T15:30:04.191Z,101334.53
2022-07-29T15:32:30.651Z,101336.72
2022-07-29T15:34:57.095Z,101342.78
2022-07-29T15:37:23.539Z,101328.81
2022-07-29T15:39:50.350Z,101341.13
2022-07-29T15:42:17.817Z,101318.69
2022-07-29T15:44:44.444Z,101338.06
2022-07-29T15:47:10.935Z,101332.66
2022-07-29T15:49:46.433Z,101329.94
2022-07-29T15:52:25.408Z,101328.13
2022-07-29T15:54:56.667Z,101325.41
2022-07-29T15:57:24.676Z,101310.91
2022-07-29T15:59:51.900Z,101328.94
2022-07-29T16:02:18.455Z,101322.72
2022-07-29T16:04:44.931Z,101320.19
2022-07-29T16:07:11.415Z,101322.03
2022-07-29T16:09:37.870Z,101315.78
2022-07-29T16:12:10.585Z,101316.44
2022-07-29T16:14:42.531Z,101317.31
2022-07-29T16:17:09.031Z,101320.84
2022-07-29T16:19:41.124Z,101313.06
2022-07-29T16:22:07.575Z,101318.97
2022-07-29T16:24:34.044Z,101313.56
2022-07-29T16:27:01.030Z,101315.59
2022-07-29T16:29:27.832Z,101316.28
2022-07-29T16:31:54.455Z,101309.88
2022-07-29T16:34:21.075Z,101309.34
2022-07-29T16:36:48.067Z,101309.34
2022-07-29T16:39:14.650Z,101302.06
2022-07-29T16:41:41.089Z,101306.44
2022-07-29T16:44:07.771Z,101299.53
2022-07-29T16:46:37.282Z,101309.13
2022-07-29T16:49:05.659Z,101312.19
2022-07-29T16:51:34.799Z,101314.41
2022-07-29T16:54:01.251Z,101308.69
2022-07-29T16:56:27.676Z,101306.38
2022-07-29T16:58:54.203Z,101305.50
2022-07-29T17:01:20.837Z,101304.66
2022-07-29T17:04:07.207Z,101305.34
2022-07-29T17:06:38.839Z,101299.63
2022-07-29T17:09:06.804Z,101281.28
2022-07-29T17:11:52.554Z,101303.16
2022-07-29T17:14:24.006Z,101306.03
2022-07-29T17:16:51.824Z,101298.28
2022-07-29T17:19:30.279Z,101302.19
2022-07-29T17:22:06.784Z,101284.84
2022-07-29T17:24:37.221Z,101291.28
2022-07-29T17:27:04.896Z,101287.75
2022-07-29T17:29:31.578Z,101282.84
2022-07-29T17:31:59.514Z,101280.19
2022-07-29T17:34:26.240Z,101304.41
2022-07-29T17:36:52.941Z,101305.44
2022-07-29T17:39:19.419Z,101302.06
2022-07-29T17:41:46.834Z,101305.31
2022-07-29T17:44:13.596Z,101301.09
2022-07-29T17:46:40.520Z,101284.06
2022-07-29T17:49:07.366Z,101306.00
2022-07-29T17:51:33.953Z,101280.34
2022-07-29T17:54:00.427Z,101260.16
2022-07-29T17:56:26.891Z,101300.09
2022-07-29T17:58:53.492Z,101296.53
2022-07-29T18:01:20.113Z,101279.00
2022-07-29T18:03:47.068Z,101303.97
2022-07-29T18:06:13.626Z,101303.13
2022-07-29T18:08:40.464Z,101305.81
2022-07-29T18:11:07.016Z,101282.06
2022-07-29T18:13:33.626Z,101279.72
2022-07-29T18:16:00.950Z,101296.75
2022-07-29T18:18:27.865Z,101301.47
2022-07-29T18:20:54.875Z,101303.66
2022-07-29T18:23:21.399Z,101268.28
2022-07-29T18:25:47.944Z,101295.25
2022-07-29T18:28:14.674Z,101296.44
2022-07-29T18:30:41.848Z,101304.03
2022-07-29T18:33:21.697Z,101281.44
2022-07-29T18:35:50.188Z,101291.88
2022-07-29T18:38:17.041Z,101277.75
2022-07-29T18:40:45.448Z,101299.31
2022-07-29T18:43:12.699Z,101223.84
2022-07-29T18:45:39.631Z,101310.44
2022-07-29T18:48:08.407Z,101307.75
2022-07-29T18:50:39.561Z,101304.69
2022-07-29T18:53:06.166Z,101301.00
2022-07-29T18:55:32.823Z,101285.63
2022-07-29T18:57:59.563Z,101305.19
2022-07-29T19:00:27.065Z,101308.06
2022-07-29T19:02:53.898Z,101308.06
2022-07-29T19:05:20.664Z,101311.78
2022-07-29T19:07:47.108Z,101306.06
2022-07-29T19:10:13.822Z,101314.47
2022-07-29T19:12:40.421Z,101309.41
2022-07-29T19:15:08.040Z,101311.28
2022-07-29T19:17:34.553Z,101312.94
2022-07-29T19:20:01.068Z,101294.59
2022-07-29T19:22:27.785Z,101311.44
2022-07-29T19:24:54.430Z,101316.69
2022-07-29T19:27:20.900Z,101316.53
2022-07-29T19:29:47.486Z,101315.13
2022-07-29T19:32:14.524Z,101308.06
2022-07-29T19:35:10.076Z,101317.34
2022-07-29T19:37:37.377Z,101322.91
2022-07-29T19:40:04.902Z,101321.53
2022-07-29T19:42:31.419Z,101323.91
2022-07-29T19:44:57.882Z,101322.56
2022-07-29T19:47:24.371Z,101303.66
2022-07-29T19:49:50.831Z,101326.06
2022-07-29T19:52:17.303Z,101322.22
2022-07-29T19:54:43.747Z,101296.75
2022-07-29T19:57:10.252Z,101305.94
2022-07-29T19:59:37.254Z,101319.75
2022-07-29T20:02:04.280Z,101326.94
2022-07-29T20:04:30.810Z,101323.41
2022-07-29T20:07:01.236Z,101226.03
2022-07-29T20:09:28.286Z,101321.19
2022-07-29T20:11:54.821Z,101322.50
2022-07-29T20:14:21.567Z,101328.38
2022-07-29T20:16:48.090Z,101324.13
2022-07-29T20:19:14.820Z,101298.78
2022-07-29T20:21:41.278Z,101326.63
2022-07-29T20:24:08.661Z,101326.81
2022-07-29T20:26:35.102Z,101321.56
2022-07-29T20:29:05.020Z,101327.09
2022-07-29T20:31:32.422Z,101322.59
2022-07-29T20:33:59.131Z,101323.28
2022-07-29T20:36:25.614Z,101323.44
2022-07-29T20:38:52.079Z,101325.56
2022-07-29T20:41:18.511Z,101320.31
2022-07-29T20:43:45.486Z,101316.97
2022-07-29T20:46:12.097Z,101320.31
2022-07-29T20:48:39.953Z,101319.50
2022-07-29T20:51:06.611Z,101325.91
2022-07-29T20:53:33.799Z,101329.75
2022-07-29T20:56:00.299Z,101327.22
2022-07-29T20:58:26.901Z,101314.88
2022-07-29T21:00:53.476Z,101310.97
2022-07-29T21:03:19.903Z,101337.44
2022-07-29T21:05:46.483Z,101272.47
2022-07-29T21:08:13.034Z,101331.38
2022-07-29T21:10:39.620Z,101332.44
2022-07-29T21:13:06.082Z,101333.63
2022-07-29T21:15:32.728Z,101337.03
2022-07-29T21:18:09.206Z,101332.34
2022-07-29T21:20:35.684Z,101331.34
2022-07-29T21:23:02.107Z,101337.41
2022-07-29T21:25:28.700Z,101334.69
2022-07-29T21:28:14.951Z,101343.78
2022-07-29T21:30:41.900Z,101342.97
2022-07-29T21:33:08.373Z,101336.75
2022-07-29T21:36:06.949Z,101335.88
2022-07-29T21:38:21.647Z,101338.75
2022-07-29T21:40:50.246Z,101340.72
2022-07-29T21:43:17.560Z,101315.41
2022-07-29T21:45:50.216Z,101331.09
2022-07-29T21:48:18.175Z,101339.03
2022-07-29T21:50:44.767Z,101337.88
2022-07-29T21:53:11.448Z,101328.19
2022-07-29T21:55:41.606Z,101344.13
2022-07-29T21:58:08.443Z,101340.72
2022-07-29T22:00:35.060Z,101333.38
2022-07-29T22:03:03.664Z,101345.13
2022-07-29T22:05:31.395Z,101335.19
2022-07-29T22:07:58.587Z,101275.56
2022-07-29T22:10:26.710Z,101344.97
2022-07-29T22:12:54.916Z,101345.81
2022-07-29T22:15:22.326Z,101336.06
2022-07-29T22:17:48.983Z,101338.75
2022-07-29T22:20:15.648Z,101340.41
2022-07-29T22:22:42.227Z,101330.59
2022-07-29T22:25:09.762Z,101325.06
2022-07-29T22:27:36.727Z,101340.41
2022-07-29T22:30:07.480Z,101335.03
2022-07-29T22:32:34.070Z,101328.25
2022-07-29T22:35:00.524Z,101329.97
2022-07-29T22:37:27.022Z,101330.66
2022-07-29T22:39:53.488Z,101329.66
2022-07-29T22:42:20.022Z,101320.88
2022-07-29T22:44:46.457Z,101329.66
2022-07-29T22:47:12.912Z,101318.50
2022-07-29T22:49:39.371Z,101325.09
2022-07-29T22:52:06.495Z,101329.66
2022-07-29T22:54:32.989Z,101328.66
2022-07-29T22:57:01.114Z,101327.66
2022-07-29T22:59:27.873Z,101332.19
2022-07-29T23:01:54.486Z,101326.81
2022-07-29T23:04:23.804Z,101334.88
2022-07-29T23:06:51.130Z,101273.41
2022-07-29T23:09:17.909Z,101345.13
2022-07-29T23:11:44.616Z,101334.88
2022-07-29T23:14:11.031Z,101336.75
2022-07-29T23:16:37.843Z,101317.13
2022-07-29T23:19:04.356Z,101316.44
2022-07-29T23:21:31.326Z,101334.06
2022-07-29T23:23:57.838Z,101333.19
2022-07-29T23:26:24.303Z,101331.34
2022-07-29T23:28:50.851Z,101327.66
2022-07-29T23:31:17.423Z,101332.19
2022-07-29T23:33:43.891Z,101297.91
2022-07-29T23:36:10.475Z,101326.81
2022-07-29T23:38:40.930Z,101321.44
2022-07-29T23:41:09.718Z,101286.50
2022-07-29T23:43:37.168Z,101325.97
2022-07-29T23:46:03.928Z,101320.59
2022-07-29T23:48:31.908Z,101320.59
2022-07-29T23:50:58.870Z,101318.88
2022-07-29T23:53:25.294Z,101321.44
2022-07-29T23:55:51.727Z,101316.19
2022-07-29T23:58:18.151Z,101326.81
